CSB990 EPGD-EPKT
Flight info
| Callsign | CSB990 |
|---|---|
| Flight time | 0h 49m |
| Altitude | 21000 |
| Route | IRLUN N133 VIDEV T359 OVBOR N133 NEGUV M66 KUKAM |
| Aircraft | MD11/H-SDE1E2E3FGHIJ2J3J4J5M1RWXY/LB1D1 |
Departure
| Time | 2026-05-01 09:05 |
|---|---|
| Airport | Gdańsk Lech Wałęsa Airport (EPGD) |
Arrival
| Time | 2026-05-01 09:55 |
|---|---|
| Airport | Katowice Wojciech Korfanty International Airport (EPKT) |
| Time | Latitude | Longitude | Altitude | Speed | Heading |
|---|---|---|---|---|---|
| 2026-05-01 08:36 | 54.38025 | 18.46758 | 467 ft | 0 kts | 23° |
| 2026-05-01 08:54 | 54.38018 | 18.46753 | 465 ft | 4 kts | 24° |
| 2026-05-01 08:55 | 54.37993 | 18.46732 | 467 ft | 4 kts | 31° |
| 2026-05-01 08:55 | 54.37971 | 18.46707 | 467 ft | 4 kts | 40° |
| 2026-05-01 08:55 | 54.37952 | 18.46676 | 464 ft | 4 kts | 54° |
| 2026-05-01 08:55 | 54.37940 | 18.46639 | 467 ft | 4 kts | 80° |
| 2026-05-01 08:56 | 54.37939 | 18.46607 | 467 ft | 1 kts | 113° |
| 2026-05-01 08:56 | 54.37940 | 18.46607 | 467 ft | 0 kts | 113° |
| 2026-05-01 09:00 | 54.37939 | 18.46607 | 467 ft | 0 kts | 113° |
| 2026-05-01 09:00 | 54.37937 | 18.46618 | 467 ft | 2 kts | 113° |
| 2026-05-01 09:00 | 54.37927 | 18.46657 | 467 ft | 6 kts | 113° |
| 2026-05-01 09:00 | 54.37908 | 18.46735 | 467 ft | 8 kts | 112° |
| 2026-05-01 09:01 | 54.37879 | 18.46853 | 467 ft | 12 kts | 112° |
| 2026-05-01 09:01 | 54.37844 | 18.46996 | 466 ft | 14 kts | 113° |
| 2026-05-01 09:01 | 54.37803 | 18.47161 | 465 ft | 16 kts | 112° |
| 2026-05-01 09:01 | 54.37760 | 18.47339 | 465 ft | 16 kts | 112° |
| 2026-05-01 09:02 | 54.37713 | 18.47522 | 468 ft | 17 kts | 114° |
| 2026-05-01 09:02 | 54.37665 | 18.47717 | 469 ft | 18 kts | 114° |
| 2026-05-01 09:02 | 54.37614 | 18.47925 | 473 ft | 20 kts | 112° |
| 2026-05-01 09:02 | 54.37559 | 18.48146 | 475 ft | 21 kts | 113° |
| 2026-05-01 09:03 | 54.37502 | 18.48372 | 482 ft | 20 kts | 113° |
| 2026-05-01 09:03 | 54.37447 | 18.48593 | 490 ft | 20 kts | 113° |
| 2026-05-01 09:03 | 54.37394 | 18.48813 | 500 ft | 20 kts | 112° |
| 2026-05-01 09:03 | 54.37339 | 18.49040 | 502 ft | 20 kts | 112° |
| 2026-05-01 09:04 | 54.37295 | 18.49213 | 503 ft | 12 kts | 119° |
| 2026-05-01 09:04 | 54.37252 | 18.49267 | 504 ft | 7 kts | 169° |
| 2026-05-01 09:04 | 54.37188 | 18.49226 | 503 ft | 13 kts | 223° |
| 2026-05-01 09:04 | 54.37159 | 18.49045 | 502 ft | 18 kts | 284° |
| 2026-05-01 09:05 | 54.37221 | 18.48792 | 502 ft | 37 kts | 292° |
| 2026-05-01 09:05 | 54.37474 | 18.47767 | 471 ft | 147 kts | 292° |
| 2026-05-01 09:05 | 54.37952 | 18.45846 | 961 ft | 189 kts | 294° |
| 2026-05-01 09:05 | 54.38493 | 18.43783 | 2093 ft | 195 kts | 295° |
| 2026-05-01 09:06 | 54.39060 | 18.41707 | 3256 ft | 188 kts | 294° |
| 2026-05-01 09:06 | 54.39529 | 18.39637 | 4346 ft | 189 kts | 279° |
| 2026-05-01 09:06 | 54.39405 | 18.37253 | 4959 ft | 210 kts | 248° |
| 2026-05-01 09:06 | 54.38482 | 18.35234 | 5679 ft | 228 kts | 220° |
| 2026-05-01 09:07 | 54.36981 | 18.34011 | 6195 ft | 251 kts | 194° |
| 2026-05-01 09:07 | 54.35205 | 18.33987 | 6791 ft | 262 kts | 168° |
| 2026-05-01 09:07 | 54.33412 | 18.34753 | 7379 ft | 270 kts | 165° |
| 2026-05-01 09:07 | 54.31553 | 18.35610 | 7982 ft | 281 kts | 163° |
| 2026-05-01 09:08 | 54.29639 | 18.36496 | 8647 ft | 289 kts | 163° |
| 2026-05-01 09:08 | 54.27682 | 18.37414 | 9394 ft | 293 kts | 163° |
| 2026-05-01 09:08 | 54.25704 | 18.38344 | 10177 ft | 296 kts | 163° |
| 2026-05-01 09:08 | 54.23668 | 18.39296 | 10652 ft | 316 kts | 163° |
| 2026-05-01 09:09 | 54.21472 | 18.40326 | 10813 ft | 346 kts | 163° |
| 2026-05-01 09:09 | 54.19065 | 18.41448 | 11216 ft | 366 kts | 163° |
| 2026-05-01 09:09 | 54.16586 | 18.42594 | 12115 ft | 371 kts | 163° |
| 2026-05-01 09:09 | 54.14066 | 18.43756 | 13005 ft | 376 kts | 163° |
| 2026-05-01 09:10 | 54.11528 | 18.44927 | 13847 ft | 381 kts | 163° |
| 2026-05-01 09:10 | 54.08945 | 18.46118 | 14673 ft | 386 kts | 163° |
| 2026-05-01 09:10 | 54.06335 | 18.47319 | 15486 ft | 391 kts | 163° |
| 2026-05-01 09:10 | 54.03693 | 18.48533 | 16239 ft | 396 kts | 163° |
| 2026-05-01 09:11 | 54.01019 | 18.49760 | 16998 ft | 400 kts | 163° |
| 2026-05-01 09:11 | 53.98309 | 18.51002 | 17726 ft | 405 kts | 162° |
| 2026-05-01 09:11 | 53.95576 | 18.52253 | 18426 ft | 409 kts | 162° |
| 2026-05-01 09:11 | 53.92813 | 18.53516 | 19104 ft | 413 kts | 162° |
| 2026-05-01 09:12 | 53.90026 | 18.54789 | 19896 ft | 413 kts | 162° |
| 2026-05-01 09:12 | 53.87222 | 18.56068 | 20331 ft | 420 kts | 162° |
| 2026-05-01 09:12 | 53.84427 | 18.57339 | 20699 ft | 415 kts | 162° |
| 2026-05-01 09:12 | 53.81641 | 18.58603 | 21076 ft | 413 kts | 162° |
| 2026-05-01 09:13 | 53.78866 | 18.59864 | 21308 ft | 413 kts | 162° |
| 2026-05-01 09:13 | 53.76123 | 18.61113 | 21358 ft | 398 kts | 161° |
| 2026-05-01 09:13 | 53.73579 | 18.62551 | 21359 ft | 377 kts | 156° |
| 2026-05-01 09:13 | 53.71170 | 18.64198 | 21364 ft | 371 kts | 154° |
| 2026-05-01 09:14 | 53.68810 | 18.65927 | 21362 ft | 370 kts | 153° |
| 2026-05-01 09:14 | 53.66489 | 18.67656 | 21369 ft | 369 kts | 153° |
| 2026-05-01 09:14 | 53.64137 | 18.69405 | 21366 ft | 369 kts | 153° |
| 2026-05-01 09:14 | 53.61779 | 18.71149 | 21367 ft | 369 kts | 153° |
| 2026-05-01 09:15 | 53.59430 | 18.72874 | 21367 ft | 369 kts | 153° |
| 2026-05-01 09:15 | 53.57068 | 18.74599 | 21367 ft | 369 kts | 153° |
| 2026-05-01 09:15 | 53.54715 | 18.76313 | 21368 ft | 369 kts | 153° |
| 2026-05-01 09:15 | 53.52334 | 18.77943 | 21363 ft | 370 kts | 157° |
| 2026-05-01 09:16 | 53.49898 | 18.79354 | 21368 ft | 371 kts | 159° |
| 2026-05-01 09:16 | 53.47440 | 18.80670 | 21367 ft | 371 kts | 160° |
| 2026-05-01 09:16 | 53.44971 | 18.81956 | 21368 ft | 371 kts | 160° |
| 2026-05-01 09:17 | 53.40043 | 18.84526 | 21364 ft | 371 kts | 160° |
| 2026-05-01 09:17 | 53.37582 | 18.85816 | 21369 ft | 371 kts | 159° |
| 2026-05-01 09:17 | 53.32664 | 18.88406 | 21367 ft | 370 kts | 159° |
| 2026-05-01 09:18 | 53.30209 | 18.89696 | 21368 ft | 370 kts | 159° |
| 2026-05-01 09:18 | 53.25284 | 18.92281 | 21368 ft | 371 kts | 159° |
| 2026-05-01 09:19 | 53.20364 | 18.94858 | 21367 ft | 371 kts | 160° |
| 2026-05-01 09:19 | 53.17897 | 18.96143 | 21369 ft | 371 kts | 160° |
| 2026-05-01 09:19 | 53.15437 | 18.97422 | 21369 ft | 371 kts | 160° |
| 2026-05-01 09:20 | 53.10512 | 18.99977 | 21367 ft | 371 kts | 160° |
| 2026-05-01 09:20 | 53.05589 | 19.02523 | 21366 ft | 370 kts | 160° |
| 2026-05-01 09:21 | 53.00670 | 19.05067 | 21367 ft | 370 kts | 159° |
| 2026-05-01 09:21 | 52.98217 | 19.06334 | 21368 ft | 370 kts | 159° |
| 2026-05-01 09:21 | 52.93299 | 19.08871 | 21368 ft | 370 kts | 160° |
| 2026-05-01 09:22 | 52.88381 | 19.11400 | 21367 ft | 370 kts | 160° |
| 2026-05-01 09:22 | 52.83491 | 19.13914 | 21367 ft | 370 kts | 160° |
| 2026-05-01 09:23 | 52.81033 | 19.15173 | 21361 ft | 370 kts | 160° |
| 2026-05-01 09:23 | 52.76106 | 19.17690 | 21354 ft | 370 kts | 159° |
| 2026-05-01 09:24 | 52.71189 | 19.20204 | 21361 ft | 370 kts | 160° |
| 2026-05-01 09:24 | 52.68732 | 19.21455 | 21357 ft | 370 kts | 160° |
| 2026-05-01 09:24 | 52.63811 | 19.23955 | 21357 ft | 370 kts | 160° |
| 2026-05-01 09:25 | 52.58895 | 19.26452 | 21361 ft | 370 kts | 160° |
| 2026-05-01 09:25 | 52.53979 | 19.28932 | 21351 ft | 369 kts | 160° |
| 2026-05-01 09:26 | 52.51516 | 19.30169 | 21352 ft | 369 kts | 160° |
| 2026-05-01 09:26 | 52.46603 | 19.32638 | 21362 ft | 369 kts | 160° |
| 2026-05-01 09:26 | 52.44141 | 19.33874 | 21359 ft | 369 kts | 160° |
| 2026-05-01 09:27 | 52.39228 | 19.36346 | 21356 ft | 369 kts | 160° |
| 2026-05-01 09:27 | 52.36776 | 19.37577 | 21352 ft | 369 kts | 160° |
| 2026-05-01 09:27 | 52.34327 | 19.38804 | 21351 ft | 369 kts | 160° |
| 2026-05-01 09:28 | 52.31894 | 19.40020 | 21344 ft | 369 kts | 160° |
| 2026-05-01 09:28 | 52.29431 | 19.41249 | 21353 ft | 369 kts | 160° |
| 2026-05-01 09:28 | 52.26969 | 19.42478 | 21346 ft | 369 kts | 160° |
| 2026-05-01 09:28 | 52.24513 | 19.43703 | 21349 ft | 369 kts | 160° |
| 2026-05-01 09:29 | 52.19594 | 19.46152 | 21351 ft | 369 kts | 160° |
| 2026-05-01 09:29 | 52.17131 | 19.47375 | 21353 ft | 369 kts | 160° |
| 2026-05-01 09:30 | 52.12213 | 19.49814 | 21346 ft | 369 kts | 160° |
| 2026-05-01 09:30 | 52.09759 | 19.51027 | 21356 ft | 368 kts | 160° |
| 2026-05-01 09:30 | 52.04843 | 19.53446 | 21340 ft | 369 kts | 160° |
| 2026-05-01 09:31 | 52.02387 | 19.54654 | 21355 ft | 369 kts | 160° |
| 2026-05-01 09:31 | 51.99960 | 19.55849 | 21352 ft | 369 kts | 160° |
| 2026-05-01 09:31 | 51.95052 | 19.58263 | 21342 ft | 369 kts | 160° |
| 2026-05-01 09:32 | 51.92593 | 19.59473 | 21356 ft | 369 kts | 160° |
| 2026-05-01 09:32 | 51.87692 | 19.61873 | 21356 ft | 368 kts | 160° |
| 2026-05-01 09:32 | 51.85237 | 19.63072 | 21350 ft | 368 kts | 160° |
| 2026-05-01 09:33 | 51.82783 | 19.64272 | 21347 ft | 369 kts | 160° |
| 2026-05-01 09:33 | 51.80330 | 19.65481 | 21344 ft | 368 kts | 159° |
| 2026-05-01 09:33 | 51.75449 | 19.68028 | 21357 ft | 368 kts | 158° |
| 2026-05-01 09:34 | 51.73019 | 19.69322 | 21341 ft | 368 kts | 158° |
| 2026-05-01 09:34 | 51.70582 | 19.70617 | 21350 ft | 368 kts | 158° |
| 2026-05-01 09:34 | 51.65709 | 19.73195 | 21348 ft | 368 kts | 158° |
| 2026-05-01 09:35 | 51.63278 | 19.74476 | 21351 ft | 367 kts | 158° |
| 2026-05-01 09:35 | 51.58416 | 19.77034 | 21352 ft | 367 kts | 158° |
| 2026-05-01 09:35 | 51.55987 | 19.78309 | 21347 ft | 368 kts | 158° |
| 2026-05-01 09:36 | 51.53580 | 19.79669 | 21336 ft | 365 kts | 152° |
| 2026-05-01 09:36 | 51.51482 | 19.81838 | 21353 ft | 355 kts | 132° |
| 2026-05-01 09:36 | 51.49851 | 19.84775 | 21337 ft | 351 kts | 123° |
| 2026-05-01 09:36 | 51.48421 | 19.87945 | 21334 ft | 350 kts | 120° |
| 2026-05-01 09:37 | 51.47504 | 19.90079 | 21335 ft | 350 kts | 120° |
| 2026-05-01 09:37 | 51.44717 | 19.96491 | 21337 ft | 351 kts | 122° |
| 2026-05-01 09:37 | 51.43050 | 19.99381 | 21333 ft | 357 kts | 137° |
| 2026-05-01 09:38 | 51.38348 | 20.02049 | 21353 ft | 372 kts | 174° |
| 2026-05-01 09:38 | 51.35754 | 20.02126 | 21338 ft | 374 kts | 178° |
| 2026-05-01 09:38 | 51.33152 | 20.02025 | 21337 ft | 374 kts | 179° |
| 2026-05-01 09:39 | 51.27900 | 20.01843 | 21131 ft | 387 kts | 178° |
| 2026-05-01 09:39 | 51.25208 | 20.01812 | 20734 ft | 387 kts | 178° |
| 2026-05-01 09:39 | 51.22512 | 20.01811 | 20247 ft | 388 kts | 177° |
| 2026-05-01 09:40 | 51.19808 | 20.01827 | 19656 ft | 388 kts | 177° |
| 2026-05-01 09:40 | 51.14408 | 20.01882 | 18544 ft | 389 kts | 177° |
| 2026-05-01 09:40 | 51.11706 | 20.01937 | 17994 ft | 387 kts | 174° |
| 2026-05-01 09:41 | 51.09048 | 20.02568 | 17461 ft | 385 kts | 163° |
| 2026-05-01 09:41 | 51.03928 | 20.05034 | 16429 ft | 384 kts | 158° |
| 2026-05-01 09:41 | 51.01431 | 20.06382 | 15911 ft | 385 kts | 158° |
| 2026-05-01 09:42 | 50.98888 | 20.07749 | 15416 ft | 385 kts | 159° |
| 2026-05-01 09:42 | 50.96342 | 20.09097 | 14895 ft | 386 kts | 159° |
| 2026-05-01 09:42 | 50.91120 | 20.11105 | 13879 ft | 391 kts | 179° |
| 2026-05-01 09:43 | 50.85805 | 20.09267 | 12929 ft | 394 kts | 198° |
| 2026-05-01 09:43 | 50.83221 | 20.07806 | 12451 ft | 394 kts | 200° |
| 2026-05-01 09:43 | 50.80722 | 20.06028 | 11779 ft | 394 kts | 212° |
| 2026-05-01 09:44 | 50.76717 | 20.00286 | 10879 ft | 388 kts | 229° |
| 2026-05-01 09:44 | 50.74946 | 19.97171 | 10739 ft | 366 kts | 229° |
| 2026-05-01 09:44 | 50.73313 | 19.94286 | 10615 ft | 340 kts | 229° |
| 2026-05-01 09:45 | 50.71775 | 19.91609 | 10495 ft | 318 kts | 229° |
| 2026-05-01 09:45 | 50.68940 | 19.86774 | 10265 ft | 293 kts | 228° |
| 2026-05-01 09:45 | 50.67549 | 19.84430 | 10039 ft | 292 kts | 228° |
| 2026-05-01 09:46 | 50.66158 | 19.82093 | 9647 ft | 292 kts | 228° |
| 2026-05-01 09:46 | 50.64773 | 19.79773 | 9231 ft | 289 kts | 227° |
| 2026-05-01 09:46 | 50.63403 | 19.77489 | 8835 ft | 285 kts | 227° |
| 2026-05-01 09:46 | 50.62048 | 19.75236 | 8447 ft | 282 kts | 227° |
| 2026-05-01 09:47 | 50.60707 | 19.73003 | 8070 ft | 280 kts | 227° |
| 2026-05-01 09:47 | 50.59371 | 19.70791 | 7677 ft | 277 kts | 227° |
| 2026-05-01 09:47 | 50.58052 | 19.68604 | 7313 ft | 275 kts | 227° |
| 2026-05-01 09:47 | 50.56740 | 19.66433 | 6982 ft | 273 kts | 227° |
| 2026-05-01 09:48 | 50.55432 | 19.64276 | 6651 ft | 273 kts | 227° |
| 2026-05-01 09:48 | 50.54169 | 19.62068 | 6231 ft | 272 kts | 236° |
| 2026-05-01 09:48 | 50.53312 | 19.59482 | 5784 ft | 269 kts | 249° |
| 2026-05-01 09:48 | 50.52619 | 19.56774 | 5392 ft | 264 kts | 250° |
| 2026-05-01 09:49 | 50.51931 | 19.54076 | 5032 ft | 261 kts | 249° |
| 2026-05-01 09:49 | 50.51246 | 19.51486 | 4702 ft | 259 kts | 248° |
| 2026-05-01 09:49 | 50.50538 | 19.48889 | 4364 ft | 258 kts | 248° |
| 2026-05-01 09:49 | 50.49817 | 19.46312 | 4077 ft | 255 kts | 247° |
| 2026-05-01 09:50 | 50.49113 | 19.43834 | 3975 ft | 240 kts | 247° |
| 2026-05-01 09:50 | 50.48448 | 19.41528 | 3963 ft | 223 kts | 246° |
| 2026-05-01 09:50 | 50.47841 | 19.39374 | 3961 ft | 202 kts | 252° |
| 2026-05-01 09:50 | 50.47639 | 19.37368 | 3933 ft | 179 kts | 268° |
| 2026-05-01 09:51 | 50.47571 | 19.35437 | 3979 ft | 176 kts | 268° |
| 2026-05-01 09:51 | 50.47533 | 19.33517 | 3922 ft | 177 kts | 271° |
| 2026-05-01 09:51 | 50.47537 | 19.31607 | 3698 ft | 172 kts | 271° |
| 2026-05-01 09:51 | 50.47541 | 19.29811 | 3429 ft | 157 kts | 271° |
| 2026-05-01 09:52 | 50.47546 | 19.28101 | 3256 ft | 157 kts | 271° |
| 2026-05-01 09:52 | 50.47551 | 19.26408 | 3046 ft | 153 kts | 271° |
| 2026-05-01 09:52 | 50.47556 | 19.24752 | 2846 ft | 151 kts | 270° |
| 2026-05-01 09:52 | 50.47566 | 19.23106 | 2617 ft | 152 kts | 270° |
| 2026-05-01 09:53 | 50.47585 | 19.21458 | 2502 ft | 154 kts | 270° |
| 2026-05-01 09:53 | 50.47605 | 19.19778 | 2311 ft | 154 kts | 269° |
| 2026-05-01 09:53 | 50.47577 | 19.18098 | 2042 ft | 153 kts | 268° |
| 2026-05-01 09:53 | 50.47563 | 19.16426 | 1826 ft | 154 kts | 271° |
| 2026-05-01 09:54 | 50.47582 | 19.14749 | 1635 ft | 154 kts | 271° |
| 2026-05-01 09:54 | 50.47592 | 19.13076 | 1436 ft | 153 kts | 270° |
| 2026-05-01 09:54 | 50.47595 | 19.11405 | 1223 ft | 153 kts | 271° |
| 2026-05-01 09:54 | 50.47594 | 19.09748 | 1030 ft | 151 kts | 271° |
| 2026-05-01 09:55 | 50.47599 | 19.08304 | 1004 ft | 110 kts | 270° |
| 2026-05-01 09:55 | 50.47601 | 19.07285 | 1009 ft | 76 kts | 270° |
| 2026-05-01 09:55 | 50.47604 | 19.06658 | 1006 ft | 41 kts | 270° |
| 2026-05-01 09:55 | 50.47605 | 19.06321 | 1003 ft | 28 kts | 270° |
| 2026-05-01 09:56 | 50.47604 | 19.06081 | 1002 ft | 14 kts | 265° |
| 2026-05-01 09:56 | 50.47586 | 19.06011 | 1002 ft | 2 kts | 223° |
| 2026-05-01 09:56 | 50.47524 | 19.05975 | 1000 ft | 16 kts | 184° |
| 2026-05-01 09:56 | 50.47448 | 19.06009 | 1002 ft | 5 kts | 137° |
| 2026-05-01 09:57 | 50.47436 | 19.06042 | 1004 ft | 6 kts | 114° |
| 2026-05-01 09:57 | 50.47429 | 19.06156 | 1004 ft | 15 kts | 91° |
| 2026-05-01 09:57 | 50.47428 | 19.06371 | 1003 ft | 23 kts | 90° |
| 2026-05-01 09:57 | 50.47428 | 19.06653 | 1006 ft | 27 kts | 90° |
| 2026-05-01 09:58 | 50.47427 | 19.06940 | 1006 ft | 26 kts | 90° |
| 2026-05-01 09:58 | 50.47426 | 19.07194 | 1006 ft | 21 kts | 90° |
| 2026-05-01 09:58 | 50.47426 | 19.07365 | 1006 ft | 11 kts | 90° |
| 2026-05-01 09:58 | 50.47412 | 19.07421 | 1006 ft | 4 kts | 133° |
| 2026-05-01 09:59 | 50.47370 | 19.07440 | 1006 ft | 9 kts | 174° |
| 2026-05-01 09:59 | 50.47292 | 19.07439 | 1006 ft | 12 kts | 179° |
| 2026-05-01 09:59 | 50.47255 | 19.07454 | 1006 ft | 3 kts | 153° |
| 2026-05-01 09:59 | 50.47241 | 19.07487 | 1006 ft | 7 kts | 115° |
| 2026-05-01 10:00 | 50.47234 | 19.07609 | 1006 ft | 16 kts | 92° |
| 2026-05-01 10:00 | 50.47234 | 19.07812 | 1006 ft | 21 kts | 90° |
| 2026-05-01 10:00 | 50.47233 | 19.08003 | 1006 ft | 7 kts | 90° |
| 2026-05-01 10:00 | 50.47229 | 19.08042 | 1006 ft | 1 kts | 111° |
| 2026-05-01 10:01 | 50.47220 | 19.08056 | 1006 ft | 4 kts | 135° |
| 2026-05-01 10:01 | 50.47209 | 19.08061 | 1006 ft | 2 kts | 167° |
| 2026-05-01 10:01 | 50.47177 | 19.08061 | 1006 ft | 5 kts | 180° |
| 2026-05-01 10:01 | 50.47152 | 19.08061 | 1006 ft | 2 kts | 180° |
| 2026-05-01 10:02 | 50.47151 | 19.08061 | 1006 ft | 0 kts | 180° |